Aviation Digital Data Service (ADDS)

Output produced by METARs form (0159 UTC 25 March 2019)
found at http://www.aviationweather.gov/metar/data/
 
METAR text: LFBA 250130Z AUTO 29006KT CAVOK 07/04 Q1025
Conditions at: LFBA (AGEN/LA GARENNE , FR) observed 0130 UTC 25 March 2019
Temperature: 7.0°C (45°F)
Dewpoint: 4.0°C (39°F) [RH = 81%]
Pressure (altimeter): 30.27 inches Hg (1025.0 mb)
Winds: from the WNW (290 degrees) at 7 MPH (6 knots; 3.1 m/s)
Visibility: 6 or more miles (10+ km)
Ceiling: ceiling and visibility are OK
Clouds: unknown
Weather: no significant weather observed at this time

Forecast for: LFBA (AGEN/LA GARENNE , FR)
Text: TAF LFBA 241700Z 2418/2503 32008KT CAVOK
Forecast period: 1800 UTC 24 March 2019 to 0300 UTC 25 March 2019
Forecast type: FROM: standard forecast or significant change
Winds: from the NW (320 degrees) at 9 MPH (8 knots; 4.1 m/s)
Visibility: 6 or more miles 10+ km)
Ceiling: unknown
Clouds: missing
Weather: NSW  (no significant weather)